Time;durP1;ratioP1;P1;durP2;ratioP2;P2;SDS_P1;SDS_P2;PMS_P1;PMS_P2;Temp;Humidity;BMP_temperature;BMP_pressure;BME280_temperature;BME280_humidity;BME280_pressure;Samples;Min_cycle;Max_cycle;Signal;HPM_P1;HPM_P2
2022/07/29 00:00:15;;;;;;;14.20;9.33;;;20.80;87.10;;;;;;5084501;28;20187;-74
2022/07/29 00:02:40;;;;;;;11.80;8.83;;;20.80;87.00;;;;;;5078971;28;20202;-73
2022/07/29 00:05:08;;;;;;;11.13;8.53;;;20.80;86.30;;;;;;5081376;28;20919;-72
2022/07/29 00:07:34;;;;;;;11.50;8.80;;;20.80;86.60;;;;;;5075031;28;20291;-72
2022/07/29 00:09:59;;;;;;;11.33;8.10;;;20.80;87.10;;;;;;5080997;28;20465;-72
2022/07/29 00:12:25;;;;;;;11.17;8.50;;;20.80;87.60;;;;;;5078497;28;20183;-73
2022/07/29 00:14:52;;;;;;;10.77;6.93;;;20.80;87.80;;;;;;5079979;28;20268;-73
2022/07/29 00:17:18;;;;;;;12.10;8.80;;;20.80;87.40;;;;;;5077224;28;20240;-72
2022/07/29 00:19:43;;;;;;;15.50;9.20;;;20.80;87.40;;;;;;5081829;28;20439;-72
2022/07/29 00:22:09;;;;;;;10.37;8.40;;;20.70;87.80;;;;;;5081967;28;20561;-72
2022/07/29 00:24:34;;;;;;;11.53;7.70;;;20.70;88.00;;;;;;5083608;28;20186;-74
2022/07/29 00:27:00;;;;;;;12.00;8.30;;;20.80;87.80;;;;;;5077849;28;20215;-74
2022/07/29 00:29:26;;;;;;;14.20;8.87;;;20.90;87.70;;;;;;5069258;28;20216;-73
2022/07/29 00:31:51;;;;;;;8.47;7.40;;;20.90;87.40;;;;;;5083254;28;20214;-74
2022/07/29 00:37:01;;;;;;;12.53;8.13;;;21.00;87.30;;;;;;5075178;28;20221;-74
2022/07/29 00:39:27;;;;;;;12.83;8.30;;;20.90;87.00;;;;;;5072974;28;20440;-74
2022/07/29 00:41:52;;;;;;;10.23;8.43;;;20.90;87.10;;;;;;5066967;28;20269;-73
2022/07/29 00:44:18;;;;;;;10.03;7.50;;;20.80;87.40;;;;;;5071485;28;20181;-73
2022/07/29 00:46:43;;;;;;;11.73;8.13;;;20.80;87.60;;;;;;5064735;28;20293;-72
2022/07/29 00:49:09;;;;;;;10.17;7.57;;;20.70;87.60;;;;;;5066917;28;20251;-75
2022/07/29 00:51:38;;;;;;;12.10;9.20;;;20.70;88.10;;;;;;5058925;28;20182;-73
2022/07/29 00:54:04;;;;;;;11.93;8.83;;;20.60;88.40;;;;;;5065587;28;20655;-74
2022/07/29 00:56:31;;;;;;;12.53;8.00;;;20.60;88.60;;;;;;5057982;28;21014;-72
2022/07/29 00:58:58;;;;;;;10.10;7.20;;;20.60;88.40;;;;;;5068874;28;20438;-74
2022/07/29 01:01:24;;;;;;;11.60;7.80;;;20.70;88.30;;;;;;5070308;28;20455;-73
2022/07/29 01:03:50;;;;;;;8.87;7.80;;;20.70;87.80;;;;;;5069143;28;20777;-73
2022/07/29 01:06:18;;;;;;;8.77;7.40;;;20.80;87.70;;;;;;5065207;28;20420;-72
2022/07/29 01:08:45;;;;;;;9.33;6.73;;;20.80;87.00;;;;;;5067379;28;20177;-70
2022/07/29 01:11:11;;;;;;;8.07;7.47;;;20.80;86.90;;;;;;5066798;28;20463;-73
2022/07/29 01:13:37;;;;;;;8.50;6.90;;;20.70;86.60;;;;;;5066282;28;20483;-72
2022/07/29 01:16:20;;;;;;;12.23;7.90;;;20.70;87.00;;;;;;5069499;28;20427;-73
2022/07/29 01:18:49;;;;;;;8.63;7.00;;;20.70;87.00;;;;;;5066107;28;20596;-72
2022/07/29 01:21:29;;;;;;;11.00;8.00;;;20.70;86.90;;;;;;5070295;28;20447;-72
2022/07/29 01:24:29;;;;;;;8.27;7.10;;;20.70;86.80;;;;;;5067599;28;20420;-74
2022/07/29 01:27:03;;;;;;;10.93;7.13;;;20.60;87.10;;;;;;5077232;28;20454;-72
2022/07/29 01:29:34;;;;;;;11.87;6.87;;;20.50;87.30;;;;;;5069012;28;20502;-74
2022/07/29 01:32:06;;;;;;;9.50;7.43;;;20.50;87.30;;;;;;5068354;28;20610;-73
2022/07/29 01:34:45;;;;;;;9.20;7.20;;;20.50;87.30;;;;;;5059695;28;20465;-73
2022/07/29 01:37:21;;;;;;;8.63;6.80;;;20.50;87.30;;;;;;5060972;28;20450;-74
2022/07/29 01:39:49;;;;;;;10.37;7.30;;;20.50;87.10;;;;;;5070516;28;20427;-73
2022/07/29 01:42:31;;;;;;;8.93;6.63;;;20.40;87.30;;;;;;5070274;28;20459;-73
2022/07/29 01:44:59;;;;;;;8.93;6.93;;;20.40;87.70;;;;;;5070106;28;20522;-73
2022/07/29 01:47:31;;;;;;;9.50;6.13;;;20.30;87.80;;;;;;5064669;28;20470;-71
2022/07/29 01:49:59;;;;;;;10.97;7.20;;;20.30;88.00;;;;;;5067624;28;20516;-73
2022/07/29 01:52:34;;;;;;;9.70;6.67;;;20.20;88.30;;;;;;5068573;28;20755;-74
2022/07/29 01:55:09;;;;;;;9.70;6.40;;;20.20;88.30;;;;;;5069930;28;20506;-73
2022/07/29 01:57:36;;;;;;;8.43;6.20;;;20.20;88.00;;;;;;5061532;28;20830;-73
2022/07/29 02:00:04;;;;;;;10.23;7.23;;;20.20;88.00;;;;;;5069995;28;20426;-73
2022/07/29 02:02:32;;;;;;;10.30;6.80;;;20.20;88.00;;;;;;5060020;28;20524;-72
2022/07/29 02:05:00;;;;;;;9.10;6.97;;;20.20;88.00;;;;;;5067495;28;20415;-74
2022/07/29 02:07:29;;;;;;;8.10;6.37;;;20.20;87.80;;;;;;5055201;28;20494;-74
2022/07/29 02:09:56;;;;;;;8.07;6.27;;;20.20;88.00;;;;;;5067931;28;20488;-72
2022/07/29 02:12:24;;;;;;;11.13;6.73;;;20.20;87.80;;;;;;5058231;28;20880;-74
2022/07/29 02:14:52;;;;;;;9.80;6.70;;;20.20;87.70;;;;;;5069249;28;20422;-74
2022/07/29 02:17:24;;;;;;;8.30;6.40;;;20.10;88.00;;;;;;5061552;28;21049;-74
2022/07/29 02:19:52;;;;;;;8.87;6.27;;;20.10;88.00;;;;;;5067899;28;20437;-72
2022/07/29 02:22:19;;;;;;;6.40;5.70;;;20.10;88.10;;;;;;5067821;28;20430;-72
2022/07/29 02:24:47;;;;;;;8.70;6.63;;;20.10;88.00;;;;;;5066218;28;20965;-73
2022/07/29 02:27:13;;;;;;;8.80;6.57;;;20.10;87.80;;;;;;5060664;28;20792;-73
2022/07/29 02:29:40;;;;;;;7.03;5.73;;;20.10;87.70;;;;;;5069036;28;20481;-74
2022/07/29 02:32:08;;;;;;;7.73;6.40;;;20.10;87.70;;;;;;5062290;28;20419;-75
2022/07/29 02:34:35;;;;;;;8.50;6.30;;;20.10;88.00;;;;;;5068670;28;21126;-73
2022/07/29 02:37:02;;;;;;;9.70;7.07;;;20.00;88.10;;;;;;5064341;28;20467;-72
2022/07/29 02:39:29;;;;;;;8.60;7.17;;;20.00;88.40;;;;;;5069517;28;20456;-74
2022/07/29 02:42:01;;;;;;;10.60;7.10;;;20.00;88.60;;;;;;5070278;28;20438;-72
2022/07/29 02:44:26;;;;;;;10.77;7.80;;;20.00;88.90;;;;;;5071554;28;21080;-74
2022/07/29 02:46:52;;;;;;;11.17;8.23;;;20.00;89.00;;;;;;5064169;28;20471;-74
2022/07/29 02:49:20;;;;;;;7.63;7.10;;;20.00;89.20;;;;;;5071909;28;20614;-73
2022/07/29 02:51:52;;;;;;;12.93;7.80;;;20.00;89.60;;;;;;5068782;28;20188;-73
2022/07/29 02:54:28;;;;;;;12.07;7.97;;;20.00;89.00;;;;;;5068074;28;20426;-74
2022/07/29 02:57:00;;;;;;;9.33;7.63;;;20.00;89.20;;;;;;5063483;28;20461;-72
2022/07/29 02:59:30;;;;;;;8.90;7.20;;;19.90;89.30;;;;;;5058377;28;20428;-74
2022/07/29 03:01:58;;;;;;;10.93;6.27;;;19.80;89.30;;;;;;5066196;28;20900;-75
2022/07/29 03:04:28;;;;;;;9.50;6.60;;;19.70;89.60;;;;;;5058917;28;20438;-72
2022/07/29 03:06:54;;;;;;;11.37;7.30;;;19.70;89.70;;;;;;5058708;28;20471;-73
2022/07/29 03:09:22;;;;;;;14.93;7.40;;;19.70;89.70;;;;;;5061449;28;20473;-74
2022/07/29 03:11:48;;;;;;;8.97;7.50;;;19.60;89.90;;;;;;5063117;28;20430;-74
2022/07/29 03:14:15;;;;;;;9.83;7.43;;;19.60;90.20;;;;;;5059635;28;20484;-75
2022/07/29 03:16:41;;;;;;;7.77;6.67;;;19.50;90.30;;;;;;5059802;28;20690;-73
2022/07/29 03:19:07;;;;;;;9.00;6.60;;;19.60;90.20;;;;;;5066639;28;20811;-73
2022/07/29 03:21:34;;;;;;;8.57;6.23;;;19.60;90.10;;;;;;5060234;28;20434;-74
2022/07/29 03:23:59;;;;;;;8.60;6.10;;;19.70;89.90;;;;;;5059648;28;21118;-73
2022/07/29 03:26:25;;;;;;;9.30;6.67;;;19.80;89.60;;;;;;5065360;28;20531;-74
2022/07/29 03:28:51;;;;;;;8.33;7.03;;;19.80;89.50;;;;;;5066769;28;20289;-75
2022/07/29 03:31:16;;;;;;;8.13;6.53;;;19.90;88.70;;;;;;5059910;28;20981;-73
2022/07/29 03:33:42;;;;;;;9.77;7.33;;;19.90;88.70;;;;;;5065049;28;20223;-75
2022/07/29 03:36:08;;;;;;;8.70;6.70;;;19.90;88.70;;;;;;5067458;28;20260;-75
2022/07/29 03:38:35;;;;;;;8.60;6.60;;;19.80;89.00;;;;;;5056912;28;20200;-72
2022/07/29 03:41:06;;;;;;;9.10;7.07;;;19.80;89.30;;;;;;5065609;28;20455;-72
2022/07/29 03:43:35;;;;;;;8.20;6.73;;;19.80;89.50;;;;;;5074322;28;20422;-73
2022/07/29 03:46:03;;;;;;;8.03;6.20;;;19.80;89.70;;;;;;5059296;28;20463;-71
2022/07/29 03:48:32;;;;;;;9.07;6.93;;;19.90;89.70;;;;;;5063370;28;21009;-72
2022/07/29 03:50:58;;;;;;;7.33;5.87;;;20.00;89.20;;;;;;5066872;28;20463;-74
2022/07/29 03:53:24;;;;;;;11.03;6.90;;;19.90;88.60;;;;;;5062741;28;20517;-72
2022/07/29 03:55:54;;;;;;;9.40;6.80;;;19.90;88.60;;;;;;5060995;28;20631;-73
2022/07/29 03:58:21;;;;;;;7.90;6.17;;;19.90;88.70;;;;;;5060298;28;20203;-73
2022/07/29 04:00:47;;;;;;;7.20;6.03;;;19.90;88.60;;;;;;5060455;28;20505;-72
2022/07/29 04:03:13;;;;;;;9.63;6.57;;;19.90;88.60;;;;;;5058976;28;20422;-72
2022/07/29 04:05:38;;;;;;;7.30;6.33;;;20.00;88.10;;;;;;5061010;28;21182;-71
2022/07/29 04:08:04;;;;;;;8.13;6.53;;;19.90;88.00;;;;;;5055873;28;21179;-73
2022/07/29 04:10:30;;;;;;;8.47;6.70;;;19.90;88.00;;;;;;5064388;28;20613;-73
2022/07/29 04:12:55;;;;;;;9.00;6.50;;;19.90;88.10;;;;;;5066613;28;20533;-74
2022/07/29 04:15:21;;;;;;;8.67;5.97;;;19.80;88.60;;;;;;5058010;28;20270;-74
2022/07/29 04:17:47;;;;;;;9.50;6.57;;;19.80;88.70;;;;;;5064930;28;20666;-74
2022/07/29 04:20:13;;;;;;;9.70;6.73;;;19.80;88.70;;;;;;5067253;28;20192;-73
2022/07/29 04:22:42;;;;;;;8.67;6.23;;;19.80;88.90;;;;;;5067868;28;20204;-73
2022/07/29 04:25:07;;;;;;;10.10;6.73;;;19.90;88.60;;;;;;5066889;28;20934;-73
2022/07/29 04:27:33;;;;;;;11.90;6.57;;;19.80;88.60;;;;;;5059781;28;20457;-74
2022/07/29 04:29:59;;;;;;;7.80;6.20;;;19.80;89.00;;;;;;5068102;28;20956;-73
2022/07/29 04:32:25;;;;;;;7.43;6.40;;;19.80;88.70;;;;;;5064108;28;20208;-73
2022/07/29 04:34:51;;;;;;;8.43;6.67;;;19.70;89.00;;;;;;5070980;28;20427;-75
2022/07/29 04:37:17;;;;;;;9.07;6.40;;;19.70;89.20;;;;;;5068378;28;20453;-73
2022/07/29 04:39:42;;;;;;;8.70;6.30;;;19.70;89.00;;;;;;5066589;28;20365;-73
2022/07/29 04:42:08;;;;;;;8.57;6.47;;;19.70;89.20;;;;;;5070889;28;20665;-73
2022/07/29 04:44:33;;;;;;;13.50;7.00;;;19.70;89.00;;;;;;5070006;28;20183;-73
2022/07/29 04:46:59;;;;;;;10.00;6.07;;;19.60;89.30;;;;;;5056949;28;20229;-72
2022/07/29 04:49:25;;;;;;;7.07;5.87;;;19.60;89.60;;;;;;5068339;28;20204;-72
2022/07/29 04:51:51;;;;;;;9.40;6.83;;;19.60;89.60;;;;;;5053292;28;20487;-71
2022/07/29 04:54:17;;;;;;;12.60;6.00;;;19.80;89.70;;;;;;5070849;28;20538;-71
2022/07/29 04:56:42;;;;;;;8.37;6.17;;;19.80;89.50;;;;;;5062141;28;20572;-72
2022/07/29 04:59:08;;;;;;;8.03;6.20;;;19.90;89.20;;;;;;5070630;28;20575;-72
2022/07/29 05:01:34;;;;;;;9.77;7.00;;;20.00;88.70;;;;;;5068857;28;20176;-71
2022/07/29 05:03:59;;;;;;;8.00;6.10;;;20.00;88.10;;;;;;5067079;28;20426;-71
2022/07/29 05:06:25;;;;;;;10.07;6.50;;;20.10;88.00;;;;;;5061508;28;20185;-72
2022/07/29 05:08:51;;;;;;;9.97;6.63;;;20.20;87.70;;;;;;5071255;28;20560;-72
2022/07/29 05:11:16;;;;;;;8.90;5.70;;;20.20;87.40;;;;;;5077872;28;20212;-71
2022/07/29 05:13:42;;;;;;;6.43;4.67;;;20.30;87.10;;;;;;5086514;28;20213;-73
2022/07/29 05:16:08;;;;;;;6.83;4.97;;;20.40;86.80;;;;;;5067707;28;20205;-72
2022/07/29 05:18:34;;;;;;;5.13;4.40;;;20.50;85.00;;;;;;5067842;28;20853;-72
2022/07/29 05:21:00;;;;;;;6.77;4.40;;;20.60;84.10;;;;;;5071545;28;20429;-73
2022/07/29 05:23:25;;;;;;;7.57;4.90;;;20.70;83.10;;;;;;5055663;28;20247;-72
2022/07/29 05:25:51;;;;;;;6.70;4.40;;;20.70;82.80;;;;;;5069309;28;20243;-71
2022/07/29 05:28:16;;;;;;;7.77;4.60;;;20.80;82.70;;;;;;5063482;28;20261;-72
2022/07/29 05:30:44;;;;;;;6.83;4.47;;;20.90;81.50;;;;;;5060129;28;20730;-72
2022/07/29 05:33:10;;;;;;;4.30;4.00;;;20.90;81.40;;;;;;5064273;28;20188;-73
2022/07/29 05:35:36;;;;;;;6.33;4.10;;;20.90;81.10;;;;;;5065513;28;20472;-73
2022/07/29 05:38:03;;;;;;;7.27;4.23;;;20.90;81.10;;;;;;5069793;28;20455;-72
2022/07/29 05:40:28;;;;;;;7.40;4.27;;;20.90;81.20;;;;;;5073969;28;20415;-72
2022/07/29 05:42:54;;;;;;;7.23;4.10;;;20.90;80.90;;;;;;5066906;28;20432;-72
2022/07/29 05:45:20;;;;;;;5.17;4.30;;;21.00;80.50;;;;;;5065253;28;20198;-71
2022/07/29 05:47:45;;;;;;;4.67;3.80;;;21.10;80.30;;;;;;5068121;28;20212;-71
2022/07/29 05:50:11;;;;;;;5.50;4.17;;;21.20;79.90;;;;;;5064174;28;20219;-72
2022/07/29 05:52:37;;;;;;;5.93;4.40;;;21.20;79.90;;;;;;5069977;28;20178;-72
2022/07/29 05:55:05;;;;;;;6.97;3.93;;;21.20;80.00;;;;;;5063578;28;20178;-73
2022/07/29 05:57:30;;;;;;;7.93;4.50;;;21.30;79.60;;;;;;5063247;28;20197;-73
2022/07/29 05:59:56;;;;;;;4.37;3.60;;;21.40;79.60;;;;;;5069430;28;20480;-72
2022/07/29 06:02:21;;;;;;;8.60;4.10;;;21.40;79.60;;;;;;5063780;28;20235;-73
2022/07/29 06:04:48;;;;;;;5.70;4.17;;;21.50;79.20;;;;;;5062878;28;20189;-73
2022/07/29 06:07:14;;;;;;;6.53;5.07;;;21.50;79.30;;;;;;5061679;28;20610;-71
2022/07/29 06:09:39;;;;;;;6.20;4.20;;;21.60;79.20;;;;;;5067729;28;20475;-73
2022/07/29 06:12:05;;;;;;;5.10;4.30;;;21.70;79.00;;;;;;5068039;28;20254;-71
2022/07/29 06:14:31;;;;;;;8.10;4.50;;;21.80;78.40;;;;;;5068326;28;20197;-71
2022/07/29 06:16:57;;;;;;;8.20;5.00;;;21.90;78.30;;;;;;5065859;28;20223;-73
2022/07/29 06:19:22;;;;;;;5.80;4.17;;;22.00;78.00;;;;;;5063681;28;20428;-72
2022/07/29 06:21:48;;;;;;;7.07;5.07;;;22.20;77.30;;;;;;5070001;28;20187;-72
2022/07/29 06:24:15;;;;;;;6.97;4.27;;;22.30;77.10;;;;;;5065852;28;20201;-71
2022/07/29 06:26:41;;;;;;;5.43;4.47;;;22.30;76.70;;;;;;5067451;28;20203;-73
2022/07/29 06:29:08;;;;;;;5.70;4.73;;;22.40;77.00;;;;;;5062163;28;20437;-72
2022/07/29 06:31:34;;;;;;;5.93;4.97;;;22.50;76.20;;;;;;5061321;28;20413;-73
2022/07/29 06:33:59;;;;;;;7.00;5.10;;;22.40;76.20;;;;;;5069805;28;20444;-72
2022/07/29 06:36:25;;;;;;;8.23;5.30;;;22.40;76.20;;;;;;5067989;28;20420;-71
2022/07/29 06:38:51;;;;;;;9.43;5.50;;;22.40;76.40;;;;;;5064484;28;20652;-73
2022/07/29 06:41:16;;;;;;;5.53;4.83;;;22.40;76.70;;;;;;5069076;28;20187;-74
2022/07/29 06:43:43;;;;;;;6.47;5.27;;;22.50;76.20;;;;;;5063929;28;20182;-73
2022/07/29 06:46:11;;;;;;;8.10;5.30;;;22.50;75.80;;;;;;5063541;28;20218;-73
2022/07/29 06:48:38;;;;;;;9.63;5.27;;;22.60;75.50;;;;;;5068984;28;20560;-76
2022/07/29 06:51:04;;;;;;;7.73;5.83;;;22.70;75.10;;;;;;5065538;28;20504;-73
2022/07/29 06:53:31;;;;;;;9.03;5.50;;;22.70;75.10;;;;;;5065269;28;20440;-72
2022/07/29 06:55:58;;;;;;;10.13;5.70;;;22.80;75.20;;;;;;5065852;28;20425;-73
2022/07/29 06:58:24;;;;;;;10.13;5.60;;;22.80;75.40;;;;;;5065892;28;20469;-72
2022/07/29 07:00:50;;;;;;;7.37;5.63;;;22.80;75.20;;;;;;5062234;28;20880;-74
2022/07/29 07:03:17;;;;;;;7.77;5.90;;;22.80;75.10;;;;;;5063900;28;20525;-75
2022/07/29 07:05:43;;;;;;;7.17;5.63;;;23.00;74.60;;;;;;5066858;28;20211;-73
2022/07/29 07:08:08;;;;;;;7.60;5.27;;;23.10;74.30;;;;;;5062652;28;20489;-72
2022/07/29 07:10:34;;;;;;;11.77;5.70;;;23.20;74.30;;;;;;5067840;28;20478;-76
2022/07/29 07:13:01;;;;;;;8.03;5.90;;;23.30;73.90;;;;;;5055238;28;20196;-79
2022/07/29 07:15:27;;;;;;;8.73;5.60;;;23.40;73.70;;;;;;5059768;28;20196;-74
2022/07/29 07:17:53;;;;;;;7.47;5.80;;;23.50;73.60;;;;;;5059890;28;20477;-72
2022/07/29 07:20:18;;;;;;;7.90;6.57;;;23.40;73.50;;;;;;5066251;28;20439;-73
2022/07/29 07:22:44;;;;;;;9.73;6.63;;;23.40;73.60;;;;;;5068912;28;20183;-72
2022/07/29 07:25:11;;;;;;;6.20;5.30;;;23.50;73.30;;;;;;5056649;28;20205;-72
2022/07/29 07:27:37;;;;;;;7.73;5.73;;;23.60;72.90;;;;;;5062018;28;20238;-70
2022/07/29 07:30:08;;;;;;;6.33;5.40;;;23.70;72.70;;;;;;5056433;28;20467;-74
2022/07/29 07:32:34;;;;;;;6.30;5.47;;;23.90;72.60;;;;;;5059855;28;20447;-71
2022/07/29 07:35:01;;;;;;;6.53;5.23;;;24.10;71.70;;;;;;5061780;28;20428;-71
2022/07/29 07:37:26;;;;;;;7.60;5.90;;;24.10;71.40;;;;;;5063081;28;20875;-72
2022/07/29 07:39:52;;;;;;;6.40;5.70;;;24.20;71.30;;;;;;5065620;28;20461;-72
2022/07/29 07:42:19;;;;;;;6.33;5.27;;;24.20;71.00;;;;;;5065190;28;20182;-72
2022/07/29 07:44:45;;;;;;;7.20;5.43;;;24.10;71.40;;;;;;5058794;28;20189;-72
2022/07/29 07:47:11;;;;;;;7.97;5.47;;;24.20;71.30;;;;;;5058945;28;20510;-71
2022/07/29 07:49:37;;;;;;;8.03;5.53;;;24.30;71.10;;;;;;5065352;28;20480;-71
2022/07/29 07:52:03;;;;;;;8.33;5.47;;;24.40;70.10;;;;;;5064376;28;20436;-72
2022/07/29 07:54:29;;;;;;;8.80;6.00;;;24.50;70.10;;;;;;5062987;28;20177;-71
2022/07/29 07:56:54;;;;;;;6.20;5.70;;;24.60;69.80;;;;;;5061812;28;20482;-71
2022/07/29 07:59:20;;;;;;;6.80;5.87;;;24.60;69.40;;;;;;5059160;28;20180;-71
2022/07/29 08:01:46;;;;;;;6.07;5.50;;;24.70;69.10;;;;;;5065813;28;20620;-71
2022/07/29 08:04:11;;;;;;;8.90;6.17;;;24.90;68.60;;;;;;5060069;28;20178;-71
2022/07/29 08:06:37;;;;;;;9.30;6.57;;;24.90;67.30;;;;;;5064815;28;20683;-71
2022/07/29 08:09:04;;;;;;;8.00;6.30;;;24.90;67.70;;;;;;5061353;28;20181;-71
2022/07/29 08:11:30;;;;;;;9.67;6.63;;;24.80;67.30;;;;;;5064797;28;20204;-71
2022/07/29 08:13:56;;;;;;;8.20;6.30;;;24.80;66.90;;;;;;5058507;28;20500;-71
2022/07/29 08:16:21;;;;;;;8.80;5.83;;;24.80;68.60;;;;;;5066074;28;20791;-71
2022/07/29 08:18:47;;;;;;;12.60;6.73;;;24.90;68.60;;;;;;5069046;28;20181;-71
2022/07/29 08:21:14;;;;;;;10.50;7.13;;;24.90;68.30;;;;;;5064763;28;20589;-73
2022/07/29 08:23:45;;;;;;;10.90;6.63;;;24.90;67.00;;;;;;5071854;28;20450;-71
2022/07/29 08:26:12;;;;;;;7.80;6.60;;;24.80;66.10;;;;;;5063278;28;20421;-70
2022/07/29 08:28:39;;;;;;;7.50;6.37;;;24.80;67.00;;;;;;5068796;28;20434;-71
2022/07/29 08:31:06;;;;;;;9.73;6.17;;;24.80;67.50;;;;;;5066936;28;20577;-71
2022/07/29 08:33:32;;;;;;;12.93;6.80;;;24.90;67.70;;;;;;5070894;28;20423;-69
2022/07/29 08:35:58;;;;;;;12.00;6.50;;;25.00;67.00;;;;;;5072597;28;20428;-71
2022/07/29 08:38:25;;;;;;;8.43;6.73;;;25.00;67.00;;;;;;5072166;28;20461;-69
2022/07/29 08:40:52;;;;;;;7.17;6.10;;;25.00;67.20;;;;;;5072955;28;20265;-70
2022/07/29 08:43:19;;;;;;;8.47;6.70;;;24.80;69.20;;;;;;5068598;28;20685;-70
2022/07/29 08:45:50;;;;;;;12.43;7.00;;;24.80;68.20;;;;;;5069219;28;20458;-69
2022/07/29 08:48:18;;;;;;;8.47;6.30;;;24.80;68.60;;;;;;5068590;28;20512;-71
2022/07/29 08:50:45;;;;;;;9.83;6.73;;;24.90;67.90;;;;;;5067465;28;20473;-72
2022/07/29 08:53:15;;;;;;;8.80;6.73;;;24.90;68.60;;;;;;5066068;28;20424;-71
2022/07/29 08:55:46;;;;;;;8.50;6.07;;;24.90;68.90;;;;;;5069406;28;20431;-71
2022/07/29 08:58:13;;;;;;;8.30;6.53;;;24.90;68.60;;;;;;5062534;28;20528;-70
2022/07/29 09:00:44;;;;;;;7.90;6.13;;;24.90;68.30;;;;;;5065854;28;20556;-71
2022/07/29 09:03:14;;;;;;;9.10;6.63;;;24.80;68.60;;;;;;5065545;28;20903;-73
2022/07/29 09:05:42;;;;;;;9.20;6.83;;;25.00;67.60;;;;;;5066924;28;20443;-71
2022/07/29 09:08:08;;;;;;;8.43;7.27;;;25.10;66.30;;;;;;5064563;28;20455;-71
2022/07/29 09:10:35;;;;;;;9.37;7.00;;;25.20;65.10;;;;;;5070331;28;20886;-71
2022/07/29 09:13:01;;;;;;;9.47;6.83;;;25.40;63.20;;;;;;5065473;28;20210;-71
2022/07/29 09:15:26;;;;;;;8.50;6.90;;;25.30;62.60;;;;;;5066378;28;20949;-70
2022/07/29 09:17:52;;;;;;;10.80;6.60;;;25.50;62.00;;;;;;5065241;28;20214;-69
2022/07/29 09:20:20;;;;;;;10.17;7.17;;;25.60;61.90;;;;;;5071141;28;20602;-70
2022/07/29 09:22:48;;;;;;;10.27;6.90;;;25.70;61.00;;;;;;5071598;28;20180;-70
2022/07/29 09:25:35;;;;;;;9.23;7.20;;;25.80;60.70;;;;;;5067691;28;20779;-71
2022/07/29 09:28:12;;;;;;;11.90;7.17;;;26.10;61.00;;;;;;5066486;28;20457;-72
2022/07/29 09:30:51;;;;;;;11.00;7.23;;;26.20;60.60;;;;;;5069418;28;20471;-72
2022/07/29 09:33:17;;;;;;;11.83;7.30;;;26.20;60.30;;;;;;5068694;28;20413;-70
2022/07/29 09:35:42;;;;;;;8.13;6.93;;;26.10;60.70;;;;;;5065119;28;20432;-70
2022/07/29 09:38:14;;;;;;;7.83;6.90;;;26.20;60.30;;;;;;5064485;28;20201;-70
2022/07/29 09:40:40;;;;;;;11.47;7.70;;;26.20;60.40;;;;;;5069879;28;20203;-70
2022/07/29 09:43:13;;;;;;;11.17;7.27;;;26.30;60.00;;;;;;5068783;28;20776;-72
2022/07/29 09:45:39;;;;;;;15.03;8.80;;;26.40;59.90;;;;;;5065516;28;20191;-70
2022/07/29 09:48:16;;;;;;;8.47;7.17;;;26.60;59.60;;;;;;5065496;28;20766;-71
2022/07/29 09:50:43;;;;;;;10.23;6.87;;;26.80;57.60;;;;;;5063058;28;20813;-71
2022/07/29 09:53:10;;;;;;;11.20;7.80;;;26.80;57.70;;;;;;5064242;28;20417;-71
2022/07/29 09:55:51;;;;;;;9.40;7.83;;;26.90;57.40;;;;;;5069849;28;20976;-71
2022/07/29 09:58:22;;;;;;;16.67;7.50;;;26.90;57.30;;;;;;5066071;28;20530;-70
2022/07/29 10:00:49;;;;;;;8.60;6.90;;;27.00;57.40;;;;;;5070037;28;20421;-70
2022/07/29 10:03:16;;;;;;;11.70;7.90;;;27.20;57.30;;;;;;5070370;28;20466;-70
2022/07/29 10:05:42;;;;;;;11.93;7.13;;;27.30;56.60;;;;;;5068010;28;20425;-72
2022/07/29 10:08:09;;;;;;;10.20;7.77;;;27.50;56.40;;;;;;5065248;28;20973;-71
2022/07/29 10:10:37;;;;;;;9.57;7.40;;;27.70;55.30;;;;;;5069446;28;20483;-71
2022/07/29 10:13:07;;;;;;;13.60;7.90;;;27.70;55.30;;;;;;5068779;28;21943;-71
2022/07/29 10:15:38;;;;;;;9.93;7.60;;;27.80;54.50;;;;;;5065849;28;20926;-70
2022/07/29 10:18:04;;;;;;;9.73;7.53;;;27.80;54.50;;;;;;5065267;28;20482;-70
2022/07/29 10:20:30;;;;;;;9.90;8.07;;;27.60;54.60;;;;;;5063199;28;20464;-70
2022/07/29 10:22:56;;;;;;;10.10;7.20;;;27.60;54.90;;;;;;5070135;28;20442;-71
2022/07/29 10:25:22;;;;;;;11.23;7.10;;;27.60;54.80;;;;;;5069148;28;20496;-70
2022/07/29 10:27:50;;;;;;;10.73;7.60;;;27.50;54.90;;;;;;5067496;28;20276;-70
2022/07/29 10:30:17;;;;;;;10.50;8.00;;;27.30;55.30;;;;;;5060059;28;20462;-72
2022/07/29 10:32:57;;;;;;;10.77;8.53;;;26.90;56.20;;;;;;5069600;28;20825;-70
2022/07/29 10:35:31;;;;;;;9.70;8.13;;;26.50;57.40;;;;;;5067381;28;20504;-71
2022/07/29 10:38:04;;;;;;;10.63;7.70;;;26.50;58.10;;;;;;5065674;28;20551;-71
2022/07/29 10:43:44;;;;;;;12.50;8.60;;;26.40;59.60;;;;;;5065334;28;20470;-70
2022/07/29 10:46:11;;;;;;;12.80;8.30;;;26.30;61.50;;;;;;5059419;28;20426;-70
2022/07/29 10:49:15;;;;;;;9.83;8.73;;;26.30;64.10;;;;;;5064686;28;20453;-69
2022/07/29 10:51:50;;;;;;;16.47;9.17;;;26.20;62.30;;;;;;5064882;28;20841;-69
2022/07/29 10:54:35;;;;;;;14.40;10.10;;;26.00;66.90;;;;;;5068231;28;20462;-70
2022/07/29 10:57:31;;;;;;;17.53;12.40;;;25.60;66.40;;;;;;5065852;28;20964;-72
2022/07/29 11:00:13;;;;;;;20.70;11.90;;;24.80;74.50;;;;;;5066346;28;20432;-69
2022/07/29 11:02:45;;;;;;;21.10;12.73;;;23.40;80.30;;;;;;5068612;28;20841;-70
2022/07/29 11:05:16;;;;;;;21.60;14.63;;;22.70;82.50;;;;;;5058803;28;20417;-71
2022/07/29 11:08:09;;;;;;;31.23;15.33;;;22.10;87.70;;;;;;5065343;28;20456;-70
2022/07/29 11:10:35;;;;;;;27.23;16.73;;;21.60;90.00;;;;;;5067209;28;20465;-71
2022/07/29 11:13:00;;;;;;;27.33;15.47;;;21.30;91.60;;;;;;5065867;28;20427;-69
2022/07/29 11:15:26;;;;;;;22.00;15.33;;;21.10;92.50;;;;;;5064779;28;20186;-69
2022/07/29 11:17:52;;;;;;;23.13;14.47;;;20.90;92.60;;;;;;5064015;28;20218;-72
2022/07/29 11:20:40;;;;;;;26.00;14.10;;;20.70;92.30;;;;;;5068019;28;20181;-71
2022/07/29 11:23:29;;;;;;;22.07;14.00;;;20.40;92.60;;;;;;5064057;28;20203;-71
2022/07/29 11:26:09;;;;;;;25.23;16.70;;;20.20;93.60;;;;;;5064688;28;20426;-70
2022/07/29 11:28:56;;;;;;;21.10;15.30;;;20.10;94.20;;;;;;5063997;28;20982;-70
2022/07/29 11:31:34;;;;;;;20.37;13.80;;;20.10;94.50;;;;;;5058735;28;20552;-71
2022/07/29 11:34:23;;;;;;;22.10;14.30;;;20.00;94.50;;;;;;5061142;28;20415;-71
2022/07/29 11:37:14;;;;;;;19.10;13.50;;;20.00;94.60;;;;;;5066127;28;20463;-70
2022/07/29 11:39:42;;;;;;;16.27;12.17;;;20.00;94.90;;;;;;5057693;28;20823;-69
2022/07/29 11:42:16;;;;;;;16.77;11.13;;;20.00;94.70;;;;;;5063050;28;20516;-69
2022/07/29 11:45:01;;;;;;;14.90;10.97;;;20.00;94.00;;;;;;5066649;28;20467;-70
2022/07/29 11:47:28;;;;;;;16.50;12.50;;;20.10;92.70;;;;;;5065777;28;20468;-70
2022/07/29 11:49:56;;;;;;;14.43;11.20;;;20.10;92.30;;;;;;5062049;28;20502;-70
2022/07/29 11:52:22;;;;;;;17.63;12.63;;;20.10;92.30;;;;;;5067423;28;20976;-71
2022/07/29 11:54:49;;;;;;;20.80;12.73;;;20.30;92.30;;;;;;5064856;28;20521;-72
2022/07/29 11:57:17;;;;;;;18.70;12.20;;;20.50;92.00;;;;;;5064690;28;20200;-72
2022/07/29 11:59:44;;;;;;;17.40;11.70;;;20.60;91.40;;;;;;5067670;28;20422;-70
2022/07/29 12:02:11;;;;;;;21.30;14.60;;;20.70;91.20;;;;;;5064362;28;20433;-72
2022/07/29 12:04:53;;;;;;;16.80;12.33;;;20.90;91.70;;;;;;5064759;28;20894;-72
2022/07/29 12:07:33;;;;;;;19.30;11.57;;;21.10;92.10;;;;;;5063767;28;20843;-69
2022/07/29 12:10:00;;;;;;;16.70;13.53;;;21.40;91.80;;;;;;5064633;28;20474;-72
2022/07/29 12:12:26;;;;;;;13.33;10.37;;;21.80;91.50;;;;;;5059843;28;20427;-73
2022/07/29 12:14:52;;;;;;;13.73;9.60;;;22.00;89.90;;;;;;5065003;28;20429;-71
2022/07/29 12:17:32;;;;;;;13.03;10.27;;;22.10;88.40;;;;;;5062529;28;20484;-71
2022/07/29 12:20:00;;;;;;;12.53;10.07;;;22.10;88.60;;;;;;5064748;28;20424;-72
2022/07/29 12:22:34;;;;;;;14.83;9.57;;;22.20;88.10;;;;;;5058944;28;20441;-70
2022/07/29 12:25:04;;;;;;;10.73;8.80;;;22.30;86.50;;;;;;5064472;28;20429;-71
2022/07/29 12:27:31;;;;;;;10.70;8.70;;;22.20;86.00;;;;;;5061480;28;20483;-73
2022/07/29 12:30:03;;;;;;;8.60;6.80;;;22.30;86.30;;;;;;5062748;28;20479;-72
2022/07/29 12:32:55;;;;;;;10.83;7.87;;;22.40;86.90;;;;;;5063123;28;20872;-73
2022/07/29 12:35:21;;;;;;;12.13;8.80;;;22.20;84.60;;;;;;5057945;28;20483;-73
2022/07/29 12:37:48;;;;;;;13.70;8.40;;;22.10;85.50;;;;;;5067033;28;20453;-73
2022/07/29 12:40:16;;;;;;;9.40;7.47;;;22.20;85.30;;;;;;5066241;28;20282;-73
2022/07/29 12:43:15;;;;;;;7.93;7.33;;;22.20;84.90;;;;;;5067403;28;20463;-73
2022/07/29 12:45:44;;;;;;;9.23;7.20;;;22.30;85.30;;;;;;5053743;28;20855;-72
2022/07/29 12:48:11;;;;;;;9.60;7.27;;;22.40;82.50;;;;;;5060520;28;20559;-72
2022/07/29 12:50:52;;;;;;;8.97;7.43;;;22.40;80.90;;;;;;5065385;28;20476;-73
2022/07/29 12:53:17;;;;;;;12.90;8.10;;;22.40;81.70;;;;;;5065583;28;20504;-71